Terminal Aerodrome Forecast
Issued by NWS

Home | Current Version | Previous Version | Graphics & Text | Print | Product List | Glossary On
Versions: 1 2 3 4 5 6 7 8 9 10 11 12
000
FTUS45 KGGW 292320
TAFOLF
TAF
KOLF 292320Z 3000/3024 12012KT P6SM BKN060
     FM300200 10008KT P6SM BKN080
     FM301200 07007KT P6SM SCT130=

USA.gov is the U.S. government's official web portal to all federal, state and local government web resources and services.